ADDS METAR Data INFO
IDs: Format: Raw Decoded Include TAF

Data at: 0837 UTC 21 Oct 2017

KMWK 210825Z AUTO 00000KT 10SM CLR 10/08 A3030 RMK AO2 T01010081
KMWK 210805Z AUTO 00000KT 10SM CLR 10/09 A3030 RMK AO2 T01040085
KMWK 210745Z AUTO 00000KT 10SM CLR 10/08 A3030 RMK AO2 T01040083
KMWK 210725Z AUTO 00000KT 10SM CLR 11/09 A3030 RMK AO2 T01120091
KMWK 210705Z AUTO 00000KT 10SM CLR 11/09 A3030 RMK AO2 T01080086
KMWK 210645Z AUTO 00000KT 10SM CLR 11/09 A3030 RMK AO2 T01120090
KMWK 210625Z AUTO 00000KT 10SM CLR 12/09 A3030 RMK AO2 T01150093
KMWK 210605Z AUTO 00000KT 10SM CLR 12/09 A3030 RMK AO2 T01180094
KMWK 210545Z AUTO 00000KT 10SM CLR 11/09 A3030 RMK AO2 T01130090
KMWK 210525Z AUTO 00000KT 10SM CLR 12/10 A3030 RMK AO2 T01200095
KMWK 210505Z AUTO 00000KT 10SM CLR 12/09 A3030 RMK AO2 T01180094
KMWK 210445Z AUTO 00000KT 10SM CLR 12/09 A3030 RMK AO2 T01160093
KMWK 210425Z AUTO 00000KT 10SM CLR 12/10 A3029 RMK AO2 T01220097
KMWK 210405Z AUTO 00000KT 10SM CLR 13/10 A3030 RMK AO2 T01300099
KMWK 210345Z AUTO 00000KT 10SM CLR 13/10 A3030 RMK AO2 T01310103
KMWK 210325Z AUTO 00000KT 10SM CLR 14/11 A3030 RMK AO2 T01400106
KMWK 210305Z AUTO 00000KT 10SM CLR 13/10 A3030 RMK AO2 T01330102
KMWK 210245Z AUTO 00000KT 10SM CLR 13/10 A3029 RMK AO2 T01340104
KMWK 210225Z AUTO 00000KT 10SM CLR 14/11 A3029 RMK AO2 T01400105
KMWK 210205Z AUTO 00000KT 10SM CLR 14/11 A3028 RMK AO2 T01410110
KMWK 210145Z AUTO 00000KT 10SM CLR 15/11 A3027 RMK AO2 T01480110
KMWK 210125Z AUTO 00000KT 10SM CLR 16/11 A3027 RMK AO2 T01640105
KMWK 210105Z AUTO 00000KT 10SM CLR 16/11 A3027 RMK AO2 T01630110
KMWK 210045Z AUTO 00000KT 10SM CLR 17/11 A3026 RMK AO2 T01680114
KMWK 210025Z AUTO 00000KT 10SM CLR 17/11 A3026 RMK AO2 T01680114
KMWK 210005Z AUTO 00000KT 10SM CLR 17/11 A3025 RMK AO2 T01720114
KMWK 202345Z AUTO 00000KT 10SM CLR 18/12 A3025 RMK AO2 T01800115
KMWK 202325Z AUTO 00000KT 10SM CLR 19/12 A3024 RMK AO2 T01860121
KMWK 202305Z AUTO 00000KT 10SM CLR 20/12 A3024 RMK AO2 T01950122
KMWK 202245Z AUTO 00000KT 10SM CLR 21/12 A3024 RMK AO2 T02070119
KMWK 202225Z AUTO 00000KT 10SM CLR 23/10 A3023 RMK AO2 T02250100
KMWK 202205Z AUTO 00000KT 10SM CLR 24/09 A3023 RMK AO2 T02380088
KMWK 202145Z AUTO 10003KT 10SM CLR 25/07 A3023 RMK AO2 T02460072
KMWK 202125Z AUTO 14003KT 10SM CLR 25/07 A3022 RMK AO2 T02500074
KMWK 202105Z AUTO 00000KT 10SM CLR 25/08 A3022 RMK AO2 T02540075
KMWK 202045Z AUTO 00000KT 10SM CLR 25/07 A3022 RMK AO2 T02520068
KMWK 202025Z AUTO 00000KT 10SM CLR 25/07 A3022 RMK AO2 T02540072
KMWK 202005Z AUTO 00000KT 10SM CLR 25/07 A3023 RMK AO2 T02530069
KMWK 201945Z AUTO 00000KT 10SM CLR 25/07 A3023 RMK AO2 T02480066
KMWK 201925Z AUTO 00000KT 10SM CLR 25/07 A3024 RMK AO2 T02490068
KMWK 201905Z AUTO 33003KT 10SM CLR 25/07 A3024 RMK AO2 T02470071
KMWK 201845Z AUTO 27004KT 10SM CLR 25/07 A3025 RMK AO2 T02460070
KMWK 201825Z AUTO 03003KT 10SM CLR 25/07 A3025 RMK AO2 T02470071
KMWK 201805Z AUTO 34003KT 10SM CLR 25/08 A3027 RMK AO2 T02480079
KMWK 201745Z AUTO 07003KT 10SM CLR 24/08 A3028 RMK AO2 T02410076
KMWK 201725Z AUTO 01004KT 10SM CLR 24/08 A3029 RMK AO2 T02370082
KMWK 201705Z AUTO 00000KT 10SM CLR 23/08 A3031 RMK AO2 T02320079
KMWK 201645Z AUTO 02005KT 10SM CLR 23/08 A3031 RMK AO2 T02320079
KMWK 201625Z AUTO 34005KT 10SM CLR 23/08 A3032 RMK AO2 T02280084
KMWK 201605Z AUTO 33005KT 10SM CLR 22/08 A3033 RMK AO2 T02210080
KMWK 201545Z AUTO 36005KT 10SM CLR 22/08 A3034 RMK AO2 T02210079
KMWK 201525Z AUTO 35004KT 10SM CLR 21/08 A3034 RMK AO2 T02130077
KMWK 201505Z AUTO 01007KT 10SM CLR 21/08 A3034 RMK AO2 T02130084
KMWK 201445Z AUTO 01004KT 10SM CLR 20/08 A3035 RMK AO2 T02020082
KMWK 201425Z AUTO 31007KT 10SM CLR 19/08 A3034 RMK AO2 T01930077
KMWK 201405Z AUTO 35005KT 10SM CLR 19/08 A3034 RMK AO2 T01880076
KMWK 201345Z AUTO 33007KT 10SM CLR 18/07 A3034 RMK AO2 T01810074
KMWK 201325Z AUTO 34004KT 10SM CLR 17/07 A3033 RMK AO2 T01730072
KMWK 201305Z AUTO 33006KT 10SM CLR 17/07 A3033 RMK AO2 T01670074
KMWK 201245Z AUTO 33006KT 10SM CLR 16/07 A3032 RMK AO2 T01580068
KMWK 201225Z AUTO 34006KT 10SM CLR 16/07 A3031 RMK AO2 T01550065
KMWK 201205Z AUTO 33005KT 10SM CLR 16/06 A3030 RMK AO2 T01550064
KMWK 201145Z AUTO 33007KT 10SM CLR 15/06 A3030 RMK AO2 T01490064
KMWK 201125Z AUTO 33007KT 320V020 10SM CLR 15/07 A3029 RMK AO2 T01490065
KMWK 201105Z AUTO 33008KT 10SM CLR 15/07 A3029 RMK AO2 T01450067
KMWK 201045Z AUTO 32009KT 10SM CLR 14/07 A3029 RMK AO2 T01410069
KMWK 201025Z AUTO 32005KT 10SM CLR 13/07 A3028 RMK AO2 T01270069
KMWK 201005Z AUTO 33003KT 10SM CLR 10/07 A3027 RMK AO2 T00980065
KMWK 200945Z AUTO 00000KT 10SM CLR 08/06 A3027 RMK AO2 T00830060
KMWK 200925Z AUTO 00000KT 10SM CLR 08/06 A3026 RMK AO2 T00820060
KMWK 200905Z AUTO 00000KT 10SM CLR 08/06 A3025 RMK AO2 T00820060
KMWK 200845Z AUTO 00000KT 10SM CLR 08/06 A3025 RMK AO2 T00830062
KMWK 200825Z AUTO 00000KT 10SM CLR 08/06 A3026 RMK AO2 T00800060
KMWK 200805Z AUTO 00000KT 10SM CLR 08/06 A3025 RMK AO2 T00810061
KMWK 200745Z AUTO 00000KT 10SM CLR 09/06 A3025 RMK AO2 T00860063
KMWK 200725Z AUTO 00000KT 10SM CLR 09/07 A3025 RMK AO2 T00910067
KMWK 200705Z AUTO 00000KT 10SM CLR 09/07 A3026 RMK AO2 T00920069
KMWK 200645Z AUTO 00000KT 10SM CLR 10/07 A3027 RMK AO2 T00960073
KMWK 200625Z AUTO 00000KT 10SM CLR 10/08 A3027 RMK AO2 T00980075
KMWK 200605Z AUTO 00000KT 10SM CLR 10/08 A3027 RMK AO2 T00980076
KMWK 200545Z AUTO 02003KT 10SM CLR 10/08 A3027 RMK AO2 T01000076
KMWK 200525Z AUTO 00000KT 10SM CLR 11/08 A3027 RMK AO2 T01060083
KMWK 200505Z AUTO 00000KT 10SM CLR 10/08 A3027 RMK AO2 T01000077
KMWK 200445Z AUTO 00000KT 10SM CLR 10/08 A3027 RMK AO2 T01010079
KMWK 200425Z AUTO 00000KT 10SM CLR 10/08 A3027 RMK AO2 T00990075
KMWK 200405Z AUTO 00000KT 10SM CLR 11/08 A3028 RMK AO2 T01060077
KMWK 200345Z AUTO 00000KT 10SM CLR 11/08 A3028 RMK AO2 T01070080
KMWK 200325Z AUTO 00000KT 10SM CLR 11/08 A3028 RMK AO2 T01120082
KMWK 200305Z AUTO 00000KT 10SM CLR 11/08 A3027 RMK AO2 T01120083
KMWK 200245Z AUTO 00000KT 10SM CLR 11/08 A3027 RMK AO2 T01100083
KMWK 200225Z AUTO 00000KT 10SM CLR 12/09 A3027 RMK AO2 T01160085
KMWK 200205Z AUTO 00000KT 10SM CLR 12/09 A3027 RMK AO2 T01200090
KMWK 200145Z AUTO 00000KT 10SM CLR 12/09 A3027 RMK AO2 T01240091
KMWK 200125Z AUTO 00000KT 10SM CLR 13/10 A3026 RMK AO2 T01260095
KMWK 200105Z AUTO 00000KT 10SM CLR 13/10 A3026 RMK AO2 T01300095
KMWK 200045Z AUTO 00000KT 10SM CLR 14/10 A3026 RMK AO2 T01350100
KMWK 200025Z AUTO 00000KT 10SM CLR 14/10 A3026 RMK AO2 T01360101
KMWK 200005Z AUTO 00000KT 10SM CLR 15/11 A3026 RMK AO2 T01450105
KMWK 192345Z AUTO 00000KT 10SM CLR 15/11 A3025 RMK AO2 T01540110
KMWK 192325Z AUTO 00000KT 10SM CLR 16/11 A3024 RMK AO2 T01630111
KMWK 192305Z AUTO 00000KT 10SM CLR 18/10 A3024 RMK AO2 T01780102
KMWK 192245Z AUTO 00000KT 10SM CLR 20/09 A3023 RMK AO2 T01960086
KMWK 192225Z AUTO 00000KT 10SM CLR 22/07 A3023 RMK AO2 T02160072
KMWK 192205Z AUTO 00000KT 10SM CLR 23/06 A3023 RMK AO2 T02250063
KMWK 192145Z AUTO 20004KT 10SM CLR 23/05 A3023 RMK AO2 T02300052
KMWK 192125Z AUTO 22003KT 10SM CLR 24/05 A3023 RMK AO2 T02350053
KMWK 192105Z AUTO 00000KT 10SM CLR 24/03 A3023 RMK AO2 T02370034
KMWK 192045Z AUTO 00000KT 10SM CLR 24/04 A3023 RMK AO2 T02400041